Time;durP1;ratioP1;P1;durP2;ratioP2;P2;SDS_P1;SDS_P2;PMS_P1;PMS_P2;Temp;Humidity;BMP_temperature;BMP_pressure;BME280_temperature;BME280_humidity;BME280_pressure;Samples;Min_cycle;Max_cycle;Signal;HPM_P1;HPM_P2
2023/04/16 07:29:08;;;;;;;9.52;5.20;;;;;;;;;;6187138;22;20115;-74
2023/04/16 07:31:34;;;;;;;14.60;5.88;;;;;;;;;;6240228;23;20051;-75
2023/04/16 07:34:00;;;;;;;12.18;5.70;;;;;;;;;;6243465;23;20065;-74
2023/04/16 07:36:27;;;;;;;10.68;5.57;;;;;;;;;;6246198;22;20008;-74
2023/04/16 07:38:52;;;;;;;12.60;6.60;;;;;;;;;;6243577;23;20011;-78
2023/04/16 07:41:18;;;;;;;13.93;6.00;;;;;;;;;;6244235;23;20004;-75
2023/04/16 07:43:43;;;;;;;11.40;6.15;;;;;;;;;;6244941;23;20012;-74
2023/04/16 07:46:08;;;;;;;12.48;6.15;;;;;;;;;;6242774;23;20008;-74
2023/04/16 07:48:34;;;;;;;17.50;6.93;;;;;;;;;;6244297;22;20483;-74
2023/04/16 07:50:59;;;;;;;13.48;6.60;;;;;;;;;;6242365;23;20007;-76
2023/04/16 07:53:27;;;;;;;12.27;6.00;;;;;;;;;;6244324;23;20004;-74
2023/04/16 07:55:52;;;;;;;13.30;6.68;;;;;;;;;;6244711;23;20007;-74
2023/04/16 07:58:17;;;;;;;14.13;6.45;;;;;;;;;;6243450;22;20000;-74
2023/04/16 08:00:44;;;;;;;12.18;6.22;;;;;;;;;;6241248;23;20012;-75
2023/04/16 08:03:10;;;;;;;12.23;6.35;;;;;;;;;;6243499;22;20008;-74
2023/04/16 08:05:35;;;;;;;13.30;6.80;;;;;;;;;;6245739;22;20316;-73
2023/04/16 08:08:00;;;;;;;14.15;7.13;;;;;;;;;;6243630;23;20482;-75
2023/04/16 08:10:26;;;;;;;16.00;7.32;;;;;;;;;;6243661;23;20095;-75
2023/04/16 08:12:52;;;;;;;14.68;6.95;;;;;;;;;;6244183;23;20385;-74
2023/04/16 08:15:18;;;;;;;13.93;7.10;;;;;;;;;;6247260;22;20031;-75
2023/04/16 08:17:43;;;;;;;13.30;6.70;;;;;;;;;;6245128;23;20342;-74
2023/04/16 08:20:09;;;;;;;15.80;6.82;;;;;;;;;;6244777;23;20338;-76
2023/04/16 08:22:35;;;;;;;16.13;8.02;;;;;;;;;;6219028;23;20023;-74
2023/04/16 08:25:01;;;;;;;15.70;7.57;;;;;;;;;;6245462;22;20004;-75
2023/04/16 08:27:27;;;;;;;15.52;7.60;;;;;;;;;;6242271;23;20004;-74
2023/04/16 08:29:52;;;;;;;15.90;7.88;;;;;;;;;;6218887;23;20085;-74
2023/04/16 08:32:18;;;;;;;16.05;7.22;;;;;;;;;;6245130;23;20051;-74
2023/04/16 08:34:43;;;;;;;14.20;7.20;;;;;;;;;;6217776;23;20008;-74
2023/04/16 08:37:09;;;;;;;15.02;7.57;;;;;;;;;;6244375;23;20008;-74
2023/04/16 08:39:34;;;;;;;16.85;8.57;;;;;;;;;;6244884;23;20342;-74
2023/04/16 08:42:03;;;;;;;14.45;7.63;;;;;;;;;;6243403;23;20019;-74
2023/04/16 08:44:35;;;;;;;17.77;7.95;;;;;;;;;;6245161;22;20008;-74
2023/04/16 08:47:01;;;;;;;13.13;7.75;;;;;;;;;;6245018;22;20083;-74
2023/04/16 08:49:27;;;;;;;13.65;7.43;;;;;;;;;;6244079;23;20000;-74
2023/04/16 08:51:54;;;;;;;16.75;8.68;;;;;;;;;;6245978;23;20008;-74
2023/04/16 08:54:45;;;;;;;16.13;8.30;;;;;;;;;;6244184;23;20004;-74
2023/04/16 08:57:11;;;;;;;15.98;8.20;;;;;;;;;;6245561;23;20499;-75
2023/04/16 08:59:38;;;;;;;13.50;7.95;;;;;;;;;;6246033;23;20008;-74
2023/04/16 09:02:05;;;;;;;14.52;8.05;;;;;;;;;;6244314;23;20085;-75
2023/04/16 09:04:31;;;;;;;13.35;7.18;;;;;;;;;;6247115;22;20075;-74
2023/04/16 09:06:57;;;;;;;16.90;8.45;;;;;;;;;;6246591;22;20035;-74
2023/04/16 09:09:25;;;;;;;16.17;7.97;;;;;;;;;;6246463;22;20539;-74
2023/04/16 09:11:51;;;;;;;15.68;8.20;;;;;;;;;;6246077;23;20484;-75
2023/04/16 09:14:17;;;;;;;16.95;7.63;;;;;;;;;;6244498;23;20087;-74
2023/04/16 09:16:45;;;;;;;15.00;8.07;;;;;;;;;;6247559;22;20008;-74
2023/04/16 09:19:10;;;;;;;15.27;8.80;;;;;;;;;;6244878;23;20007;-76
2023/04/16 09:21:38;;;;;;;15.70;7.45;;;;;;;;;;6244275;23;20008;-74
2023/04/16 09:24:03;;;;;;;14.07;8.05;;;;;;;;;;6248692;22;20065;-74
2023/04/16 09:26:29;;;;;;;13.35;7.25;;;;;;;;;;6245329;23;20004;-75
2023/04/16 09:28:55;;;;;;;16.73;7.72;;;;;;;;;;6248779;23;20091;-74
2023/04/16 09:31:20;;;;;;;14.02;7.18;;;;;;;;;;6244657;23;20397;-75
2023/04/16 09:34:03;;;;;;;15.68;7.78;;;;;;;;;;6246646;23;20058;-74
2023/04/16 09:36:30;;;;;;;16.70;7.65;;;;;;;;;;6248832;22;20175;-74
2023/04/16 09:38:56;;;;;;;13.95;7.03;;;;;;;;;;6247464;23;20000;-74
2023/04/16 09:41:27;;;;;;;14.70;7.57;;;;;;;;;;6247144;23;20020;-75
2023/04/16 09:44:03;;;;;;;15.18;7.78;;;;;;;;;;6249532;22;20050;-74
2023/04/16 09:46:41;;;;;;;14.10;7.75;;;;;;;;;;6249090;23;20007;-75
2023/04/16 09:49:14;;;;;;;15.20;7.38;;;;;;;;;;6245666;23;19996;-74
2023/04/16 09:51:40;;;;;;;;;;;;;;;;;;6246549;23;20000;-74
2023/04/16 09:54:06;;;;;;;14.25;7.80;;;;;;;;;;6246715;23;19910;-74
2023/04/16 09:56:31;;;;;;;15.27;7.45;;;;;;;;;;6248612;22;20012;-74
2023/04/16 09:58:58;;;;;;;14.38;7.50;;;;;;;;;;6247125;23;20443;-74
2023/04/16 10:01:28;;;;;;;13.63;7.60;;;;;;;;;;6246695;22;20488;-74
2023/04/16 10:03:56;;;;;;;14.75;7.85;;;;;;;;;;6244899;23;20039;-78
2023/04/16 10:06:24;;;;;;;14.60;7.78;;;;;;;;;;6241246;23;20430;-78
2023/04/16 10:08:51;;;;;;;13.35;7.25;;;;;;;;;;6242269;23;20430;-78
2023/04/16 10:11:20;;;;;;;14.98;7.43;;;;;;;;;;6242648;22;20007;-78
2023/04/16 10:13:48;;;;;;;14.48;7.85;;;;;;;;;;6242704;22;20418;-78
2023/04/16 10:16:14;;;;;;;13.45;8.10;;;;;;;;;;6243488;22;20090;-78
2023/04/16 10:18:42;;;;;;;14.20;7.95;;;;;;;;;;6241632;23;20388;-78
2023/04/16 10:21:10;;;;;;;17.40;8.25;;;;;;;;;;6214559;23;20004;-78
2023/04/16 10:23:37;;;;;;;13.60;7.43;;;;;;;;;;6242366;23;20004;-78
2023/04/16 10:26:04;;;;;;;12.43;6.90;;;;;;;;;;6240615;23;20046;-78
2023/04/16 10:28:30;;;;;;;13.55;7.35;;;;;;;;;;6244505;22;20004;-78
2023/04/16 10:30:57;;;;;;;17.95;7.80;;;;;;;;;;6241134;23;20081;-78
2023/04/16 10:33:28;;;;;;;13.20;7.55;;;;;;;;;;6244092;22;20011;-78
2023/04/16 10:36:11;;;;;;;12.75;6.32;;;;;;;;;;6241065;23;20008;-78
2023/04/16 10:38:48;;;;;;;12.77;6.60;;;;;;;;;;6241192;23;20008;-78
2023/04/16 10:41:14;;;;;;;14.60;7.43;;;;;;;;;;6240931;23;20012;-78
2023/04/16 10:43:40;;;;;;;11.20;6.72;;;;;;;;;;6242050;22;20062;-78
2023/04/16 10:46:32;;;;;;;13.30;7.07;;;;;;;;;;6243163;22;20418;-78
2023/04/16 10:49:11;;;;;;;11.70;6.20;;;;;;;;;;6242049;23;20382;-78
2023/04/16 10:51:36;;;;;;;12.15;6.57;;;;;;;;;;6239581;23;20027;-78
2023/04/16 10:54:08;;;;;;;11.25;6.65;;;;;;;;;;6244579;22;20004;-78
2023/04/16 10:56:35;;;;;;;11.73;6.55;;;;;;;;;;6244913;22;20004;-78
2023/04/16 10:59:03;;;;;;;13.18;6.90;;;;;;;;;;6240481;23;20000;-78
2023/04/16 11:01:39;;;;;;;12.02;6.82;;;;;;;;;;6243438;22;20008;-78
2023/04/16 11:04:20;;;;;;;11.82;7.28;;;;;;;;;;6244851;22;20422;-78
2023/04/16 11:07:13;;;;;;;13.13;7.05;;;;;;;;;;6241798;23;20004;-79
2023/04/16 11:10:01;;;;;;;10.38;6.55;;;;;;;;;;6243457;22;20384;-78
2023/04/16 11:12:36;;;;;;;11.85;6.95;;;;;;;;;;6241288;23;20031;-78
2023/04/16 11:15:04;;;;;;;11.05;6.20;;;;;;;;;;6240060;22;20027;-78
2023/04/16 11:17:44;;;;;;;10.38;6.28;;;;;;;;;;6241046;22;20007;-78
2023/04/16 11:20:21;;;;;;;8.63;5.53;;;;;;;;;;6240990;23;20038;-78
2023/04/16 11:22:51;;;;;;;9.57;5.80;;;;;;;;;;6241691;23;20087;-78
2023/04/16 11:25:32;;;;;;;11.10;6.75;;;;;;;;;;6239940;22;20449;-78
2023/04/16 11:27:58;;;;;;;10.25;5.93;;;;;;;;;;6241540;22;20007;-78
2023/04/16 11:30:35;;;;;;;8.40;5.43;;;;;;;;;;6233602;23;20091;-78
2023/04/16 11:33:04;;;;;;;9.50;5.70;;;;;;;;;;6228723;23;20055;-78
2023/04/16 11:35:30;;;;;;;9.50;5.50;;;;;;;;;;6233856;23;20012;-78
2023/04/16 11:37:56;;;;;;;10.07;5.88;;;;;;;;;;6233208;22;20315;-78
2023/04/16 11:40:22;;;;;;;9.00;5.95;;;;;;;;;;6233050;22;20004;-78
2023/04/16 11:42:47;;;;;;;10.60;5.93;;;;;;;;;;6231616;22;20047;-78
2023/04/16 11:45:12;;;;;;;10.27;5.88;;;;;;;;;;6230391;22;20008;-77
2023/04/16 11:47:43;;;;;;;8.07;5.32;;;;;;;;;;6234198;22;20035;-78
2023/04/16 11:50:20;;;;;;;9.27;5.50;;;;;;;;;;6228950;23;20034;-78
2023/04/16 11:52:46;;;;;;;8.50;5.28;;;;;;;;;;6232581;22;20327;-78
2023/04/16 11:55:12;;;;;;;8.00;5.25;;;;;;;;;;6228501;23;20004;-78
2023/04/16 11:57:37;;;;;;;9.20;5.50;;;;;;;;;;6231683;23;20374;-78
2023/04/16 12:00:04;;;;;;;8.88;5.10;;;;;;;;;;6230998;22;20000;-78
2023/04/16 12:02:38;;;;;;;8.02;4.95;;;;;;;;;;6230641;23;20425;-78
2023/04/16 12:05:06;;;;;;;8.32;5.05;;;;;;;;;;6229586;23;20450;-78
2023/04/16 12:07:42;;;;;;;7.82;5.43;;;;;;;;;;6229795;23;20008;-78
2023/04/16 12:10:07;;;;;;;7.50;4.70;;;;;;;;;;6231177;23;20000;-78
2023/04/16 12:12:34;;;;;;;9.30;4.78;;;;;;;;;;6230561;22;20484;-78
2023/04/16 12:15:04;;;;;;;8.00;4.85;;;;;;;;;;6230492;23;20007;-78
2023/04/16 12:17:31;;;;;;;9.02;5.40;;;;;;;;;;6229933;22;20098;-78
2023/04/16 12:19:58;;;;;;;9.05;5.50;;;;;;;;;;6230426;23;20011;-78
2023/04/16 12:22:35;;;;;;;9.27;5.72;;;;;;;;;;6229688;23;20023;-78
2023/04/16 12:25:02;;;;;;;10.30;5.25;;;;;;;;;;6231327;23;20012;-79
2023/04/16 12:27:40;;;;;;;10.68;5.90;;;;;;;;;;6231631;22;20004;-78
2023/04/16 12:30:07;;;;;;;10.02;5.53;;;;;;;;;;6233641;22;20011;-78
2023/04/16 12:32:32;;;;;;;10.13;6.22;;;;;;;;;;6233242;22;20202;-78
2023/04/16 12:34:58;;;;;;;11.57;5.78;;;;;;;;;;6232568;23;20044;-78
2023/04/16 12:37:23;;;;;;;10.70;5.88;;;;;;;;;;6234785;23;20502;-78
2023/04/16 12:39:49;;;;;;;9.13;6.30;;;;;;;;;;6233551;22;20007;-78
2023/04/16 12:42:14;;;;;;;9.68;6.30;;;;;;;;;;6231653;23;20020;-78
2023/04/16 12:44:40;;;;;;;9.35;6.22;;;;;;;;;;6232092;22;20003;-78
2023/04/16 12:47:05;;;;;;;10.23;6.40;;;;;;;;;;6233528;22;20008;-80
2023/04/16 12:49:31;;;;;;;9.15;5.90;;;;;;;;;;6233695;22;20023;-78
2023/04/16 12:51:56;;;;;;;12.13;6.70;;;;;;;;;;6233561;22;20454;-79
2023/04/16 12:54:21;;;;;;;10.43;6.03;;;;;;;;;;6232118;23;20012;-79
2023/04/16 12:56:47;;;;;;;9.35;5.65;;;;;;;;;;6229769;22;20011;-78
2023/04/16 12:59:12;;;;;;;10.00;5.85;;;;;;;;;;6231002;22;20000;-79
2023/04/16 13:01:37;;;;;;;8.60;5.57;;;;;;;;;;6231853;23;20038;-79
2023/04/16 13:04:03;;;;;;;9.68;5.25;;;;;;;;;;6229858;23;20011;-79
2023/04/16 13:06:31;;;;;;;12.43;6.45;;;;;;;;;;6229832;22;20078;-79
2023/04/16 13:08:56;;;;;;;11.98;7.00;;;;;;;;;;6231040;22;20014;-79
2023/04/16 13:11:22;;;;;;;12.85;6.82;;;;;;;;;;6228507;23;20007;-79
2023/04/16 13:13:47;;;;;;;11.45;7.18;;;;;;;;;;6235024;22;20046;-79
2023/04/16 13:16:12;;;;;;;12.45;7.30;;;;;;;;;;6232090;22;20014;-79
2023/04/16 13:18:39;;;;;;;12.80;7.30;;;;;;;;;;6231019;23;20059;-78
2023/04/16 13:21:04;;;;;;;11.50;7.35;;;;;;;;;;6232385;22;20012;-79
2023/04/16 13:23:30;;;;;;;11.50;6.55;;;;;;;;;;6231677;23;20062;-79
2023/04/16 13:25:55;;;;;;;12.02;7.32;;;;;;;;;;6232667;23;20498;-79
2023/04/16 13:28:21;;;;;;;13.57;7.40;;;;;;;;;;6231434;23;20004;-79
2023/04/16 13:30:46;;;;;;;14.32;7.43;;;;;;;;;;6229351;23;20019;-79
2023/04/16 13:33:11;;;;;;;14.65;8.43;;;;;;;;;;6231742;22;20027;-79
2023/04/16 13:35:37;;;;;;;15.45;7.97;;;;;;;;;;6229584;23;20027;-79
2023/04/16 13:38:03;;;;;;;12.77;7.95;;;;;;;;;;6233875;22;20010;-79
2023/04/16 13:40:28;;;;;;;16.90;8.98;;;;;;;;;;6233295;23;20007;-79
2023/04/16 13:42:54;;;;;;;16.27;8.60;;;;;;;;;;6230707;23;20008;-79
2023/04/16 13:45:19;;;;;;;16.08;8.93;;;;;;;;;;6232403;22;20417;-79
2023/04/16 13:47:45;;;;;;;16.25;9.18;;;;;;;;;;6233738;22;20074;-79
2023/04/16 13:50:10;;;;;;;15.77;9.02;;;;;;;;;;6231261;23;20050;-79
2023/04/16 13:52:36;;;;;;;16.33;8.93;;;;;;;;;;6233187;23;20004;-79
2023/04/16 13:55:02;;;;;;;15.20;8.70;;;;;;;;;;6231370;23;20007;-79
2023/04/16 13:57:27;;;;;;;13.40;8.60;;;;;;;;;;6230967;23;20038;-79
2023/04/16 13:59:54;;;;;;;15.57;8.93;;;;;;;;;;6229742;23;20008;-79
2023/04/16 14:02:20;;;;;;;17.20;8.98;;;;;;;;;;6233862;22;20194;-79
2023/04/16 14:04:46;;;;;;;14.25;8.93;;;;;;;;;;6232569;23;20574;-80
2023/04/16 14:07:11;;;;;;;17.35;9.43;;;;;;;;;;6230857;23;20111;-79
2023/04/16 14:09:36;;;;;;;14.30;8.98;;;;;;;;;;6233565;23;20008;-79
2023/04/16 14:12:02;;;;;;;14.70;8.65;;;;;;;;;;6233166;22;20008;-79
2023/04/16 14:14:27;;;;;;;17.15;8.48;;;;;;;;;;6233398;22;20012;-79
2023/04/16 14:16:53;;;;;;;13.77;8.35;;;;;;;;;;6231033;23;20014;-79
2023/04/16 14:19:19;;;;;;;12.38;7.28;;;;;;;;;;6232898;22;20004;-79
2023/04/16 14:21:44;;;;;;;15.93;8.63;;;;;;;;;;6231682;23;20094;-79
2023/04/16 14:24:10;;;;;;;18.02;8.48;;;;;;;;;;6232060;23;20111;-79
2023/04/16 14:26:35;;;;;;;13.98;8.18;;;;;;;;;;6233133;22;20032;-79
2023/04/16 14:29:00;;;;;;;15.10;8.20;;;;;;;;;;6231889;23;20018;-79
2023/04/16 14:31:26;;;;;;;12.07;7.75;;;;;;;;;;6236542;22;20008;-79
2023/04/16 14:33:51;;;;;;;15.05;8.05;;;;;;;;;;6234896;22;20370;-79
2023/04/16 14:36:17;;;;;;;14.40;8.43;;;;;;;;;;6233533;23;20003;-79
2023/04/16 14:38:42;;;;;;;16.08;8.25;;;;;;;;;;6238906;23;20008;-80
2023/04/16 14:41:08;;;;;;;15.88;8.60;;;;;;;;;;6236526;23;20709;-79
2023/04/16 14:43:34;;;;;;;12.98;7.75;;;;;;;;;;6239184;22;20056;-79
2023/04/16 14:45:59;;;;;;;14.70;8.18;;;;;;;;;;6237025;22;20012;-80
2023/04/16 18:22:30;;;;;;;14.43;8.95;;;;;;;;;;6166740;22;20024;-79
2023/04/16 18:24:56;;;;;;;13.52;8.23;;;;;;;;;;6240368;23;20028;-75
2023/04/16 18:27:21;;;;;;;15.82;9.00;;;;;;;;;;6241900;22;20292;-76
2023/04/16 18:29:47;;;;;;;13.95;8.60;;;;;;;;;;6214891;23;20008;-77
2023/04/16 18:32:12;;;;;;;14.60;9.10;;;;;;;;;;6239017;22;20346;-76
2023/04/16 18:34:37;;;;;;;13.38;9.00;;;;;;;;;;6239468;22;20086;-77
2023/04/16 18:37:03;;;;;;;14.95;8.75;;;;;;;;;;6243890;22;20011;-77
2023/04/16 18:39:31;;;;;;;18.80;9.60;;;;;;;;;;6238821;23;20113;-78
2023/04/16 18:41:57;;;;;;;18.92;8.88;;;;;;;;;;6236422;23;20350;-77
2023/04/16 18:44:23;;;;;;;17.17;9.20;;;;;;;;;;6238110;23;20079;-76
2023/04/16 18:46:48;;;;;;;13.95;8.65;;;;;;;;;;6240906;22;20496;-78
2023/04/16 18:49:13;;;;;;;18.83;8.73;;;;;;;;;;6240531;23;20008;-76
2023/04/16 18:51:40;;;;;;;16.63;9.23;;;;;;;;;;6244727;22;20004;-76
2023/04/16 18:54:06;;;;;;;14.40;9.18;;;;;;;;;;6244110;23;20345;-78
2023/04/16 18:56:31;;;;;;;12.80;8.40;;;;;;;;;;6246612;23;20012;-77
2023/04/16 18:58:56;;;;;;;14.63;8.18;;;;;;;;;;6241046;23;20340;-79
2023/04/16 19:01:22;;;;;;;16.55;9.20;;;;;;;;;;6242506;23;20008;-77
2023/04/16 19:03:47;;;;;;;16.75;9.68;;;;;;;;;;6243413;22;20438;-78
2023/04/16 19:06:13;;;;;;;16.17;8.70;;;;;;;;;;6242443;22;20015;-77
2023/04/16 19:08:38;;;;;;;15.38;9.43;;;;;;;;;;6238843;23;20008;-77
2023/04/16 19:11:03;;;;;;;14.73;9.50;;;;;;;;;;6240827;23;20004;-79
2023/04/16 19:13:32;;;;;;;14.93;9.13;;;;;;;;;;6240115;23;20008;-78
2023/04/16 19:16:00;;;;;;;15.98;8.48;;;;;;;;;;6243863;22;20102;-77
2023/04/16 19:18:26;;;;;;;17.98;9.80;;;;;;;;;;6243935;22;20103;-77
2023/04/16 19:20:58;;;;;;;18.15;9.02;;;;;;;;;;6242027;22;20438;-78
2023/04/16 19:23:23;;;;;;;16.03;9.87;;;;;;;;;;6241869;22;20019;-80
2023/04/16 19:25:49;;;;;;;16.95;9.35;;;;;;;;;;6230820;22;20294;-79
2023/04/16 19:28:15;;;;;;;16.92;9.38;;;;;;;;;;6236831;22;20008;-78
2023/04/16 19:30:42;;;;;;;15.25;9.85;;;;;;;;;;6238301;23;20500;-79
2023/04/16 19:33:07;;;;;;;15.63;9.40;;;;;;;;;;6241135;22;20014;-77
2023/04/16 19:35:33;;;;;;;19.58;10.20;;;;;;;;;;6240379;22;20056;-78
2023/04/16 19:37:58;;;;;;;17.35;10.27;;;;;;;;;;6236223;23;20008;-77
2023/04/16 19:40:24;;;;;;;15.95;9.40;;;;;;;;;;6239063;23;20014;-77
2023/04/16 19:42:49;;;;;;;15.10;9.55;;;;;;;;;;6241115;23;20019;-79
2023/04/16 19:45:16;;;;;;;14.93;9.27;;;;;;;;;;6242845;23;20015;-77
2023/04/16 19:47:41;;;;;;;13.98;8.73;;;;;;;;;;6242383;22;20105;-78
2023/04/16 19:50:07;;;;;;;15.93;8.77;;;;;;;;;;6238439;23;20008;-79
2023/04/16 19:52:37;;;;;;;16.40;9.57;;;;;;;;;;6240199;22;20035;-77
2023/04/16 19:55:04;;;;;;;16.55;9.90;;;;;;;;;;6239128;22;20043;-79
2023/04/16 19:57:30;;;;;;;18.33;9.80;;;;;;;;;;6242044;22;20004;-77
2023/04/16 19:59:55;;;;;;;16.75;9.63;;;;;;;;;;6238596;23;20007;-77
2023/04/16 20:02:20;;;;;;;15.43;9.38;;;;;;;;;;6241333;22;20324;-79
2023/04/16 20:04:47;;;;;;;17.90;9.23;;;;;;;;;;6238266;23;20015;-77
2023/04/16 20:07:12;;;;;;;18.00;9.63;;;;;;;;;;6236315;23;20007;-77
2023/04/16 20:09:38;;;;;;;16.13;9.93;;;;;;;;;;6238656;22;20552;-80
2023/04/16 20:12:03;;;;;;;17.58;10.02;;;;;;;;;;6239387;23;20011;-77
2023/04/16 20:14:28;;;;;;;17.42;9.85;;;;;;;;;;6240655;22;20004;-78
2023/04/16 20:16:54;;;;;;;18.00;9.77;;;;;;;;;;6239098;22;20004;-79
2023/04/16 20:19:20;;;;;;;16.38;9.50;;;;;;;;;;6239394;22;20327;-77
2023/04/16 20:21:46;;;;;;;16.90;10.88;;;;;;;;;;6238762;22;20446;-76
2023/04/16 20:24:11;;;;;;;15.95;10.07;;;;;;;;;;6239186;22;20012;-80
2023/04/16 20:26:37;;;;;;;17.02;10.30;;;;;;;;;;6236528;23;20024;-77
2023/04/16 20:29:02;;;;;;;18.70;10.68;;;;;;;;;;6235399;23;20095;-78
2023/04/16 20:31:27;;;;;;;20.33;10.60;;;;;;;;;;6242855;22;20011;-80
2023/04/16 20:33:53;;;;;;;18.70;10.27;;;;;;;;;;6242323;22;20101;-76
2023/04/16 20:36:19;;;;;;;19.50;10.75;;;;;;;;;;6242963;22;20004;-77
2023/04/16 20:38:45;;;;;;;21.70;11.25;;;;;;;;;;6240306;22;20032;-78
2023/04/16 20:41:13;;;;;;;18.73;10.35;;;;;;;;;;6237085;23;20058;-77
2023/04/16 20:43:40;;;;;;;17.55;10.30;;;;;;;;;;6235825;23;20046;-77
2023/04/16 20:46:07;;;;;;;23.88;11.68;;;;;;;;;;6239861;23;20008;-80
2023/04/16 20:48:33;;;;;;;18.33;10.98;;;;;;;;;;6250276;22;20004;-77
2023/04/16 20:51:02;;;;;;;17.75;10.55;;;;;;;;;;6247181;22;20334;-78
2023/04/16 20:53:29;;;;;;;19.23;10.80;;;;;;;;;;6245360;23;20477;-77
2023/04/16 20:55:54;;;;;;;18.90;12.10;;;;;;;;;;6246597;23;20070;-77
2023/04/16 20:58:20;;;;;;;19.48;10.57;;;;;;;;;;6248232;22;20000;-77
2023/04/16 21:00:52;;;;;;;20.85;10.13;;;;;;;;;;6245651;22;20054;-80
2023/04/16 21:03:18;;;;;;;21.70;12.25;;;;;;;;;;6240176;22;20442;-80
2023/04/16 21:05:52;;;;;;;19.33;11.35;;;;;;;;;;6241223;23;20058;-80
2023/04/16 21:08:18;;;;;;;20.02;11.70;;;;;;;;;;6243520;22;20015;-80
2023/04/16 21:10:44;;;;;;;21.48;12.35;;;;;;;;;;6240661;23;20002;-80
2023/04/16 21:13:09;;;;;;;21.98;12.45;;;;;;;;;;6242245;23;20011;-80
2023/04/16 21:15:39;;;;;;;17.92;10.82;;;;;;;;;;6242692;23;20000;-80
2023/04/16 21:18:05;;;;;;;20.45;11.20;;;;;;;;;;6243622;22;20066;-80
2023/04/16 21:20:30;;;;;;;20.75;12.10;;;;;;;;;;6243478;23;20004;-80
2023/04/16 21:22:56;;;;;;;21.33;11.27;;;;;;;;;;6244371;22;20016;-81
2023/04/16 21:25:22;;;;;;;18.60;11.20;;;;;;;;;;6242953;23;20000;-80
2023/04/16 21:27:48;;;;;;;21.75;12.13;;;;;;;;;;6244971;22;20000;-79
2023/04/16 21:30:13;;;;;;;17.90;11.32;;;;;;;;;;6243479;23;19996;-80
2023/04/16 21:32:39;;;;;;;21.67;11.07;;;;;;;;;;6244539;22;20007;-80
2023/04/16 21:35:05;;;;;;;18.65;10.85;;;;;;;;;;6245382;22;20008;-80
2023/04/16 21:37:30;;;;;;;21.45;11.00;;;;;;;;;;6244776;22;20004;-80
2023/04/16 21:39:56;;;;;;;18.02;10.57;;;;;;;;;;6245263;22;20023;-80
2023/04/16 21:42:21;;;;;;;19.40;11.65;;;;;;;;;;6243087;22;20015;-80
2023/04/16 21:44:46;;;;;;;17.10;10.88;;;;;;;;;;6243343;22;20018;-80
2023/04/16 21:47:12;;;;;;;22.60;12.70;;;;;;;;;;6240774;23;20092;-80
2023/04/16 21:49:37;;;;;;;17.15;10.82;;;;;;;;;;6240842;22;20004;-80
2023/04/16 21:52:02;;;;;;;19.70;10.48;;;;;;;;;;6235822;23;20438;-80
2023/04/16 21:54:28;;;;;;;18.42;11.07;;;;;;;;;;6241210;22;20331;-80
2023/04/16 21:56:53;;;;;;;19.83;12.00;;;;;;;;;;6240854;23;20331;-80
2023/04/16 21:59:18;;;;;;;19.80;10.93;;;;;;;;;;6243391;23;20069;-80
2023/04/16 22:01:44;;;;;;;17.88;10.00;;;;;;;;;;6242922;22;20424;-80
2023/04/16 22:04:10;;;;;;;20.95;11.25;;;;;;;;;;6242822;22;20000;-80
2023/04/16 22:06:36;;;;;;;18.38;11.07;;;;;;;;;;6242507;23;20472;-80
2023/04/16 22:09:03;;;;;;;18.90;10.52;;;;;;;;;;6243975;22;20004;-80
2023/04/16 22:11:29;;;;;;;16.88;9.48;;;;;;;;;;6244993;22;20429;-80
2023/04/16 22:13:56;;;;;;;17.75;10.55;;;;;;;;;;6243647;23;20018;-80
2023/04/16 22:16:23;;;;;;;18.08;10.57;;;;;;;;;;6240573;23;20004;-80
2023/04/16 22:18:49;;;;;;;19.20;11.18;;;;;;;;;;6244582;22;20004;-80
2023/04/16 22:21:14;;;;;;;19.90;11.93;;;;;;;;;;6242149;23;19996;-80
2023/04/16 22:23:40;;;;;;;18.23;11.40;;;;;;;;;;6239611;22;20016;-80
2023/04/16 22:26:05;;;;;;;19.63;11.48;;;;;;;;;;6242231;23;20026;-80
2023/04/16 22:28:31;;;;;;;20.88;11.20;;;;;;;;;;6243104;22;20008;-80
2023/04/16 22:30:56;;;;;;;19.73;11.60;;;;;;;;;;6245274;22;20004;-80
2023/04/16 22:33:21;;;;;;;20.50;11.80;;;;;;;;;;6243904;23;20007;-80
2023/04/16 22:35:47;;;;;;;17.50;10.82;;;;;;;;;;6244715;22;20060;-80
2023/04/16 22:38:12;;;;;;;17.70;10.00;;;;;;;;;;6245612;22;20504;-80
2023/04/16 22:40:37;;;;;;;21.13;12.05;;;;;;;;;;6242653;23;20000;-80
2023/04/16 22:43:03;;;;;;;18.17;11.48;;;;;;;;;;6241156;23;20012;-80
2023/04/16 22:45:29;;;;;;;20.90;11.18;;;;;;;;;;6242841;22;20000;-80
2023/04/16 22:47:54;;;;;;;21.60;11.80;;;;;;;;;;6244006;22;20011;-80
2023/04/16 22:50:19;;;;;;;19.35;11.90;;;;;;;;;;6242412;23;20018;-80
2023/04/16 22:52:45;;;;;;;18.02;11.10;;;;;;;;;;6241942;23;20311;-80
2023/04/16 22:55:10;;;;;;;21.63;11.30;;;;;;;;;;6243503;22;20419;-80
2023/04/16 22:57:36;;;;;;;18.35;11.18;;;;;;;;;;6242563;23;20087;-80
2023/04/16 23:00:04;;;;;;;18.45;10.70;;;;;;;;;;6240860;23;20000;-80
2023/04/16 23:02:29;;;;;;;20.17;11.27;;;;;;;;;;6242518;23;20448;-80
2023/04/16 23:04:54;;;;;;;21.00;12.15;;;;;;;;;;6243006;22;20079;-80
2023/04/16 23:07:20;;;;;;;22.38;11.88;;;;;;;;;;6242264;23;20004;-80
2023/04/16 23:09:45;;;;;;;20.42;11.65;;;;;;;;;;6242822;23;20492;-80
2023/04/16 23:12:10;;;;;;;19.88;11.80;;;;;;;;;;6242711;23;20008;-80
2023/04/16 23:14:36;;;;;;;19.83;11.35;;;;;;;;;;6243961;22;20012;-80
2023/04/16 23:17:01;;;;;;;22.40;12.00;;;;;;;;;;6240655;23;20031;-81
2023/04/16 23:19:27;;;;;;;21.27;11.18;;;;;;;;;;6240661;22;20007;-80
2023/04/16 23:21:52;;;;;;;21.40;11.82;;;;;;;;;;6241445;23;20008;-80
2023/04/16 23:24:18;;;;;;;20.75;11.95;;;;;;;;;;6240336;22;20048;-80
2023/04/16 23:26:43;;;;;;;20.33;11.98;;;;;;;;;;6242032;22;20320;-80
2023/04/16 23:29:08;;;;;;;18.90;10.80;;;;;;;;;;6238790;23;20011;-80
2023/04/16 23:31:34;;;;;;;19.75;11.43;;;;;;;;;;6240580;23;20031;-80
2023/04/16 23:33:59;;;;;;;23.23;11.75;;;;;;;;;;6242461;22;20453;-80
2023/04/16 23:36:25;;;;;;;24.08;11.77;;;;;;;;;;6240232;23;20435;-80
2023/04/16 23:38:51;;;;;;;20.08;11.60;;;;;;;;;;6243820;22;20035;-80
2023/04/16 23:41:16;;;;;;;20.30;11.65;;;;;;;;;;6239714;23;20620;-80
2023/04/16 23:43:41;;;;;;;19.35;11.40;;;;;;;;;;6240848;23;20085;-80
2023/04/16 23:46:07;;;;;;;22.27;12.38;;;;;;;;;;6240285;22;20441;-80
2023/04/16 23:48:32;;;;;;;19.63;11.82;;;;;;;;;;6240670;23;20031;-80
2023/04/16 23:50:58;;;;;;;21.63;12.27;;;;;;;;;;6240034;22;20000;-79
2023/04/16 23:53:23;;;;;;;18.80;11.40;;;;;;;;;;6239992;23;20008;-80
2023/04/16 23:55:48;;;;;;;19.48;11.80;;;;;;;;;;6216744;23;20015;-80
2023/04/16 23:58:14;;;;;;;19.27;11.63;;;;;;;;;;6242327;22;20012;-80
